Time;durP1;ratioP1;P1;durP2;ratioP2;P2;SDS_P1;SDS_P2;PMS_P1;PMS_P2;Temp;Humidity;BMP_temperature;BMP_pressure;BME280_temperature;BME280_humidity;BME280_pressure;Samples;Min_cycle;Max_cycle;Signal;HPM_P1;HPM_P2
2021/12/25 00:00:17;;;;;;;0.15;0.15;;;8.20;99.90;;;;;;5053041;28;20397;-70
2021/12/25 00:02:43;;;;;;;0.52;0.52;;;8.00;99.90;;;;;;5054606;28;20041;-70
2021/12/25 00:05:12;;;;;;;0.22;0.22;;;8.00;99.90;;;;;;5054184;28;20469;-70
2021/12/25 00:07:38;;;;;;;2.22;2.10;;;8.10;99.90;;;;;;5054198;28;20044;-70
2021/12/25 00:10:06;;;;;;;0.08;0.08;;;8.10;99.90;;;;;;5053014;28;20087;-70
2021/12/25 00:12:32;;;;;;;0.20;0.20;;;8.10;99.90;;;;;;5054637;28;20130;-70
2021/12/25 00:15:00;;;;;;;0.10;0.10;;;7.90;99.90;;;;;;5036494;28;20056;-70
2021/12/25 00:17:26;;;;;;;6.95;1.95;;;7.80;99.90;;;;;;5052977;28;20040;-71
2021/12/25 00:19:53;;;;;;;0.05;0.05;;;7.70;99.90;;;;;;5054088;28;20032;-70
2021/12/25 00:22:21;;;;;;;0.20;0.20;;;7.70;99.90;;;;;;5053822;28;20086;-70
2021/12/25 00:24:48;;;;;;;0.55;0.55;;;7.60;99.90;;;;;;5053885;28;20061;-70
2021/12/25 00:27:53;;;;;;;1.00;0.73;;;7.60;99.90;;;;;;5053141;28;20108;-69
2021/12/25 00:30:28;;;;;;;0.55;0.55;;;7.60;99.90;;;;;;5049638;28;20041;-70
2021/12/25 00:33:51;;;;;;;1.08;0.98;;;7.60;99.90;;;;;;5038945;28;20033;-69
2021/12/25 00:35:42;;;;;;;0.77;0.77;;;7.70;99.90;;;;;;5050627;28;20049;-71
2021/12/25 00:38:07;;;;;;;0.95;0.85;;;7.60;99.90;;;;;;5052148;28;20032;-70
2021/12/25 00:40:33;;;;;;;0.50;0.50;;;7.70;99.90;;;;;;5053698;28;20029;-71
2021/12/25 00:42:59;;;;;;;0.22;0.22;;;7.60;99.90;;;;;;5053760;28;20040;-70
2021/12/25 00:45:25;;;;;;;0.63;0.63;;;7.60;99.90;;;;;;5053606;28;20026;-70
2021/12/25 00:47:51;;;;;;;2.30;0.82;;;7.50;99.90;;;;;;5053351;28;20049;-71
2021/12/25 00:50:16;;;;;;;0.93;0.93;;;7.50;99.90;;;;;;5053581;28;20033;-70
2021/12/25 00:52:42;;;;;;;0.30;0.30;;;7.50;99.90;;;;;;5053547;28;20029;-70
2021/12/25 00:55:09;;;;;;;5.72;2.95;;;7.50;99.90;;;;;;5052008;28;20128;-70
2021/12/25 00:57:36;;;;;;;0.40;0.40;;;7.50;99.90;;;;;;5053474;28;20029;-73
2021/12/25 01:00:09;;;;;;;0.47;0.47;;;7.40;99.90;;;;;;5035687;28;20045;-70
2021/12/25 01:02:37;;;;;;;0.28;0.28;;;7.40;99.90;;;;;;5036213;28;20083;-71
2021/12/25 01:05:04;;;;;;;1.17;1.17;;;7.40;99.90;;;;;;5035546;28;20037;-71
2021/12/25 01:07:30;;;;;;;0.85;0.85;;;7.40;99.90;;;;;;5051914;28;20025;-71
2021/12/25 01:09:56;;;;;;;1.90;1.75;;;7.20;99.90;;;;;;5052001;28;20484;-70
2021/12/25 01:12:22;;;;;;;6.30;2.78;;;7.20;99.90;;;;;;5053084;28;20386;-70
2021/12/25 01:14:54;;;;;;;0.38;0.38;;;7.30;99.90;;;;;;5053154;28;20083;-70
2021/12/25 01:18:05;;;;;;;0.30;0.30;;;7.30;99.90;;;;;;5052793;28;20072;-70
2021/12/25 01:31:07;;;;;;;3.95;3.58;;;7.40;99.90;;;;;;5052866;28;20029;-69
2021/12/25 01:49:25;;;;;;;0.98;0.88;;;7.40;99.90;;;;;;5072150;28;20384;-70
2021/12/25 01:51:50;;;;;;;0.20;0.20;;;7.40;99.90;;;;;;5071422;28;20021;-70
2021/12/25 01:54:16;;;;;;;0.10;0.10;;;7.50;99.90;;;;;;5072270;28;20088;-70
2021/12/25 01:56:43;;;;;;;0.32;0.32;;;7.50;99.90;;;;;;5072286;28;20492;-69
2021/12/25 01:59:09;;;;;;;0.65;0.63;;;7.50;99.90;;;;;;5072445;28;20108;-70
2021/12/25 02:01:35;;;;;;;1.70;0.43;;;7.50;99.90;;;;;;5071177;28;20085;-70
2021/12/25 02:04:01;;;;;;;3.08;1.90;;;7.50;99.90;;;;;;5072231;28;20025;-70
2021/12/25 02:06:27;;;;;;;13.10;1.85;;;7.50;99.90;;;;;;5072134;28;20040;-70
2021/12/25 02:08:53;;;;;;;0.60;0.43;;;7.50;99.90;;;;;;5070784;28;20116;-69
2021/12/25 02:11:18;;;;;;;0.98;0.98;;;7.60;99.90;;;;;;5071859;28;20449;-69
2021/12/25 02:13:46;;;;;;;0.20;0.20;;;7.60;99.90;;;;;;5070729;28;20134;-69
2021/12/25 02:16:16;;;;;;;0.20;0.20;;;7.60;99.90;;;;;;5071925;28;20040;-70
2021/12/25 02:21:34;;;;;;;0.45;0.45;;;7.60;99.90;;;;;;5070780;28;20073;-69
2021/12/25 02:24:03;;;;;;;1.65;1.55;;;7.60;99.90;;;;;;5070582;28;20033;-69
2021/12/25 02:26:30;;;;;;;0.15;0.15;;;7.70;99.90;;;;;;5070506;28;20056;-69
2021/12/25 02:28:56;;;;;;;0.40;0.40;;;7.60;99.90;;;;;;5071802;28;20029;-69
2021/12/25 02:31:23;;;;;;;1.95;1.85;;;7.60;99.90;;;;;;5070870;28;20024;-69
2021/12/25 02:33:50;;;;;;;0.15;0.15;;;7.60;99.90;;;;;;5071777;28;20078;-69
2021/12/25 02:36:17;;;;;;;0.10;0.10;;;7.60;99.90;;;;;;5070243;28;20031;-69
2021/12/25 02:38:44;;;;;;;1.85;0.85;;;7.60;99.90;;;;;;5071727;28;20512;-69
2021/12/25 02:41:10;;;;;;;0.57;0.57;;;7.60;99.90;;;;;;5070253;28;20398;-70
2021/12/25 02:43:37;;;;;;;0.30;0.30;;;7.60;99.90;;;;;;5071763;28;20048;-70
2021/12/25 02:46:04;;;;;;;1.15;1.05;;;7.60;99.90;;;;;;5071627;28;20127;-70
2021/12/25 02:48:33;;;;;;;0.45;0.45;;;7.60;99.90;;;;;;5071325;28;20107;-70
2021/12/25 02:51:00;;;;;;;1.10;0.90;;;7.60;99.90;;;;;;5071423;28;20036;-70
2021/12/25 02:53:25;;;;;;;0.32;0.32;;;7.60;99.90;;;;;;5071336;28;20060;-70
2021/12/25 02:55:51;;;;;;;0.40;0.40;;;7.60;99.90;;;;;;5070340;28;20131;-70
2021/12/25 02:58:19;;;;;;;0.98;0.93;;;7.50;99.90;;;;;;5071589;28;20493;-70
2021/12/25 03:00:47;;;;;;;0.43;0.40;;;7.50;99.90;;;;;;5071518;28;20090;-70
2021/12/25 03:03:14;;;;;;;0.45;0.45;;;7.50;99.90;;;;;;5069871;28;20427;-70
2021/12/25 03:05:40;;;;;;;0.20;0.20;;;7.50;99.90;;;;;;5070419;28;20473;-70
2021/12/25 03:08:08;;;;;;;0.50;0.50;;;7.50;99.90;;;;;;5071276;28;20386;-70
2021/12/25 03:10:36;;;;;;;0.28;0.28;;;7.50;99.90;;;;;;5070481;28;20036;-70
2021/12/25 03:15:51;;;;;;;0.40;0.40;;;7.50;99.90;;;;;;5039581;28;20095;-70
2021/12/25 03:18:26;;;;;;;0.63;0.63;;;7.50;99.90;;;;;;5071389;28;20110;-70
2021/12/25 03:20:58;;;;;;;1.13;1.08;;;7.50;99.90;;;;;;5071206;28;20051;-70
2021/12/25 03:23:27;;;;;;;0.50;0.50;;;7.50;99.90;;;;;;5069918;28;20173;-70
2021/12/25 03:25:55;;;;;;;0.15;0.15;;;7.50;99.90;;;;;;5071500;28;20052;-70
2021/12/25 03:28:29;;;;;;;0.50;0.50;;;7.50;99.90;;;;;;5071125;28;20033;-70
2021/12/25 03:30:59;;;;;;;0.85;0.65;;;7.60;99.90;;;;;;5054079;28;20021;-71
2021/12/25 03:33:27;;;;;;;3.50;0.98;;;7.50;99.90;;;;;;5050158;28;20039;-71
2021/12/25 03:35:53;;;;;;;0.85;0.85;;;7.50;99.90;;;;;;5055732;28;20071;-71
2021/12/25 03:38:19;;;;;;;0.73;0.73;;;7.50;99.90;;;;;;5070952;28;20036;-71
2021/12/25 03:40:48;;;;;;;0.65;0.65;;;7.50;99.90;;;;;;5069872;28;20032;-71
2021/12/25 03:43:14;;;;;;;0.22;0.22;;;7.50;99.90;;;;;;5086506;28;20546;-71
2021/12/25 03:45:40;;;;;;;0.15;0.15;;;7.60;99.90;;;;;;5071015;28;20025;-72
2021/12/25 03:48:31;;;;;;;0.75;0.75;;;7.60;99.90;;;;;;5071196;28;20523;-71
2021/12/25 03:59:08;;;;;;;0.73;0.45;;;7.60;99.90;;;;;;5070037;28;20469;-71
2021/12/25 04:06:46;;;;;;;0.73;0.73;;;7.60;99.90;;;;;;5057200;28;20024;-72
2021/12/25 04:09:30;;;;;;;0.40;0.25;;;7.60;99.90;;;;;;5057610;28;20048;-71
2021/12/25 04:12:05;;;;;;;1.13;1.08;;;7.60;99.90;;;;;;5074435;28;20388;-71
2021/12/25 04:14:31;;;;;;;0.10;0.10;;;7.60;99.90;;;;;;5074516;28;20545;-71
2021/12/25 04:16:57;;;;;;;0.80;0.73;;;7.60;99.90;;;;;;5073241;28;20119;-71
2021/12/25 04:19:22;;;;;;;1.20;1.10;;;7.60;99.90;;;;;;5074431;28;20127;-71
2021/12/25 04:22:02;;;;;;;0.63;0.63;;;7.60;99.90;;;;;;5073989;28;20064;-71
2021/12/25 04:24:34;;;;;;;0.22;0.22;;;7.60;99.90;;;;;;5072834;28;20688;-71
2021/12/25 04:27:00;;;;;;;0.28;0.28;;;7.60;99.90;;;;;;5072943;28;20063;-71
2021/12/25 05:04:25;;;;;;;0.52;0.52;;;7.70;99.90;;;;;;5073575;28;20048;-71
2021/12/25 05:06:51;;;;;;;0.10;0.10;;;7.70;99.90;;;;;;5073742;28;20079;-71
2021/12/25 05:09:17;;;;;;;3.92;1.60;;;7.70;99.90;;;;;;5071920;28;20033;-71
2021/12/25 05:11:43;;;;;;;6.07;0.75;;;7.70;99.90;;;;;;5073003;28;20043;-71
2021/12/25 05:14:09;;;;;;;0.88;0.88;;;7.70;99.90;;;;;;5071846;28;20139;-71
2021/12/25 05:16:35;;;;;;;0.30;0.30;;;7.70;99.90;;;;;;5071601;28;20123;-71
2021/12/25 05:19:01;;;;;;;0.85;0.85;;;7.70;99.90;;;;;;5073122;28;20063;-71
2021/12/25 05:21:27;;;;;;;0.10;0.10;;;7.70;99.90;;;;;;5071686;28;20044;-71
2021/12/25 05:23:52;;;;;;;0.30;0.30;;;7.70;99.90;;;;;;5072783;28;20040;-71
2021/12/25 05:26:18;;;;;;;0.98;0.98;;;7.70;99.90;;;;;;5070143;28;20052;-71
2021/12/25 05:28:52;;;;;;;5.72;2.88;;;7.70;99.90;;;;;;5052020;28;20512;-71
2021/12/25 05:31:17;;;;;;;0.35;0.35;;;7.80;99.90;;;;;;5051613;28;20167;-71
2021/12/25 05:33:43;;;;;;;1.38;1.30;;;7.80;99.90;;;;;;5051442;28;20116;-71
2021/12/25 05:36:10;;;;;;;0.20;0.20;;;7.90;99.90;;;;;;5065665;28;20055;-72
2021/12/25 05:38:36;;;;;;;1.88;1.45;;;7.90;99.90;;;;;;5071345;28;20040;-71
2021/12/25 05:41:03;;;;;;;0.38;0.38;;;8.00;99.90;;;;;;5072848;28;20028;-71
2021/12/25 05:43:29;;;;;;;0.08;0.08;;;8.00;99.90;;;;;;5071209;28;20044;-72
2021/12/25 05:45:55;;;;;;;0.35;0.35;;;8.00;99.90;;;;;;5072396;28;20037;-71
2021/12/25 05:48:20;;;;;;;2.15;0.80;;;8.00;99.90;;;;;;5071217;28;20036;-71
2021/12/25 05:50:47;;;;;;;0.10;0.10;;;8.00;99.90;;;;;;5071337;28;20397;-71
2021/12/25 05:53:13;;;;;;;0.20;0.20;;;8.00;99.90;;;;;;5072321;28;20071;-71
2021/12/25 05:55:39;;;;;;;10.18;1.25;;;8.00;99.90;;;;;;5071321;28;20490;-71
2021/12/25 05:58:07;;;;;;;0.50;0.50;;;8.00;99.90;;;;;;5070998;28;20542;-71
2021/12/25 06:00:35;;;;;;;0.35;0.35;;;8.10;99.90;;;;;;5070869;28;20039;-71
2021/12/25 06:03:00;;;;;;;0.50;0.50;;;8.10;99.90;;;;;;5071019;28;20036;-71
2021/12/25 06:05:27;;;;;;;0.55;0.55;;;8.10;99.90;;;;;;5071986;28;20568;-71
2021/12/25 06:07:53;;;;;;;0.40;0.40;;;8.00;99.90;;;;;;5070879;28;20041;-71
2021/12/25 06:10:19;;;;;;;0.43;0.43;;;8.10;99.90;;;;;;5070953;28;20039;-71
2021/12/25 06:12:49;;;;;;;0.50;0.50;;;8.10;99.90;;;;;;5070651;28;20541;-71
2021/12/25 06:15:19;;;;;;;0.20;0.20;;;8.10;99.90;;;;;;5071949;28;20024;-71
2021/12/25 06:17:45;;;;;;;2.27;2.10;;;8.20;99.90;;;;;;5070885;28;20469;-71
2021/12/25 06:20:13;;;;;;;0.47;0.47;;;8.10;99.90;;;;;;5070703;28;20290;-71
2021/12/25 06:22:39;;;;;;;0.00;0.00;;;8.10;99.90;;;;;;5071999;28;20040;-71
2021/12/25 06:25:07;;;;;;;1.08;1.00;;;8.10;99.90;;;;;;5070006;28;20039;-71
2021/12/25 06:27:33;;;;;;;0.10;0.10;;;8.10;99.90;;;;;;5071947;28;20032;-72
2021/12/25 06:29:58;;;;;;;2.50;2.30;;;8.00;99.90;;;;;;5070432;28;20025;-71
2021/12/25 06:32:25;;;;;;;1.70;1.60;;;7.90;99.90;;;;;;5070400;28;20104;-71
2021/12/25 06:34:51;;;;;;;0.30;0.30;;;7.90;99.90;;;;;;5070584;28;20079;-71
2021/12/25 06:37:18;;;;;;;0.15;0.15;;;7.90;99.90;;;;;;5070320;28;20117;-72
2021/12/25 06:39:44;;;;;;;3.40;1.05;;;7.90;99.90;;;;;;5070594;28;20085;-72
2021/12/25 06:42:10;;;;;;;0.73;0.70;;;7.90;99.90;;;;;;5067040;28;20027;-72
2021/12/25 06:44:36;;;;;;;3.67;2.58;;;7.90;99.90;;;;;;5071805;28;20037;-72
2021/12/25 06:47:03;;;;;;;4.07;1.85;;;7.80;99.90;;;;;;5071446;28;20560;-71
2021/12/25 06:49:29;;;;;;;2.38;2.17;;;7.80;99.90;;;;;;5083452;28;20397;-68
2021/12/25 06:51:55;;;;;;;0.52;0.52;;;7.80;99.90;;;;;;5084063;28;20132;-71
2021/12/25 06:54:21;;;;;;;0.32;0.32;;;7.90;99.90;;;;;;5083746;28;20112;-74
2021/12/25 06:56:48;;;;;;;0.60;0.60;;;7.90;99.90;;;;;;5051290;28;20123;-74
2021/12/25 06:59:16;;;;;;;0.10;0.10;;;7.80;99.90;;;;;;5051782;28;20033;-74
2021/12/25 07:01:42;;;;;;;1.05;1.05;;;7.80;99.90;;;;;;5051208;28;20021;-77
2021/12/25 07:04:08;;;;;;;0.25;0.25;;;7.70;99.90;;;;;;5083673;28;20045;-78
2021/12/25 07:06:36;;;;;;;3.22;1.95;;;7.70;99.90;;;;;;5079980;28;20056;-74
2021/12/25 07:09:05;;;;;;;1.10;1.00;;;7.70;99.90;;;;;;5051594;28;20057;-72
2021/12/25 07:11:32;;;;;;;1.20;1.17;;;7.70;99.90;;;;;;5050225;28;20040;-79
2021/12/25 07:14:00;;;;;;;0.22;0.22;;;7.70;99.90;;;;;;5061909;28;20062;-74
2021/12/25 07:16:29;;;;;;;0.25;0.25;;;7.70;99.90;;;;;;5071515;28;20047;-76
2021/12/25 07:18:55;;;;;;;0.32;0.32;;;7.80;99.90;;;;;;5066689;28;20032;-66
2021/12/25 07:21:22;;;;;;;3.65;2.50;;;7.80;99.90;;;;;;5091365;28;20035;-70
2021/12/25 07:23:48;;;;;;;3.05;1.52;;;7.80;99.90;;;;;;5090253;28;20411;-66
2021/12/25 07:26:17;;;;;;;1.13;0.65;;;7.80;99.90;;;;;;5090201;28;20024;-67
2021/12/25 07:28:45;;;;;;;0.20;0.20;;;7.90;99.90;;;;;;5074500;28;20044;-72
2021/12/25 07:31:11;;;;;;;0.50;0.50;;;7.80;99.90;;;;;;5087040;28;20099;-74
2021/12/25 07:33:40;;;;;;;0.20;0.20;;;7.80;99.90;;;;;;5071044;28;20545;-71
2021/12/25 07:36:08;;;;;;;0.50;0.50;;;7.80;99.90;;;;;;5070436;28;20090;-72
2021/12/25 07:38:35;;;;;;;0.65;0.65;;;7.90;99.90;;;;;;5073689;28;20029;-70
2021/12/25 07:41:01;;;;;;;1.02;0.75;;;8.00;99.90;;;;;;5073580;28;20048;-72
2021/12/25 07:43:26;;;;;;;2.83;2.63;;;7.90;99.90;;;;;;5073584;28;20040;-67
2021/12/25 07:45:52;;;;;;;0.45;0.45;;;7.90;99.90;;;;;;5074889;28;20472;-68
2021/12/25 07:48:20;;;;;;;2.80;1.10;;;7.90;99.90;;;;;;5077477;28;20043;-68
2021/12/25 07:50:47;;;;;;;0.13;0.13;;;7.90;99.90;;;;;;5094019;28;20032;-67
2021/12/25 07:53:16;;;;;;;3.50;3.22;;;8.00;99.90;;;;;;5094922;28;20036;-68
2021/12/25 07:55:43;;;;;;;3.35;3.15;;;8.00;99.90;;;;;;5093756;28;20036;-67
2021/12/25 07:58:09;;;;;;;3.95;2.40;;;8.10;99.90;;;;;;5080567;28;20378;-67
2021/12/25 08:00:35;;;;;;;2.17;1.33;;;8.00;99.90;;;;;;5067353;28;20029;-66
2021/12/25 08:03:02;;;;;;;0.22;0.22;;;8.00;99.90;;;;;;5054477;28;20036;-67
2021/12/25 08:05:29;;;;;;;0.35;0.35;;;8.10;99.90;;;;;;5053099;28;20091;-63
2021/12/25 08:07:55;;;;;;;2.35;1.35;;;8.20;99.90;;;;;;5054243;28;20139;-67
2021/12/25 08:10:21;;;;;;;1.60;1.42;;;8.20;99.90;;;;;;5054431;28;20562;-68
2021/12/25 08:12:57;;;;;;;0.30;0.30;;;8.20;99.90;;;;;;5055843;28;20398;-68
2021/12/25 08:15:27;;;;;;;0.40;0.40;;;8.20;99.90;;;;;;5037100;28;20073;-67
2021/12/25 08:17:55;;;;;;;0.20;0.20;;;8.20;99.90;;;;;;5053109;28;20152;-69
2021/12/25 08:20:21;;;;;;;0.40;0.40;;;8.30;99.90;;;;;;5091990;28;20024;-68
2021/12/25 08:22:47;;;;;;;0.98;0.98;;;8.30;99.90;;;;;;5094054;28;20093;-69
2021/12/25 08:25:15;;;;;;;0.35;0.35;;;8.30;99.90;;;;;;5093049;28;20557;-70
2021/12/25 08:27:46;;;;;;;0.75;0.75;;;8.30;99.90;;;;;;5088449;28;20041;-67
2021/12/25 08:30:17;;;;;;;1.45;0.98;;;8.30;99.90;;;;;;5046002;28;20029;-66
2021/12/25 08:32:43;;;;;;;1.27;1.17;;;8.30;99.90;;;;;;5054100;28;20047;-67
2021/12/25 08:35:14;;;;;;;0.43;0.43;;;8.20;99.90;;;;;;5036438;28;20036;-67
2021/12/25 08:37:41;;;;;;;0.10;0.10;;;8.10;99.90;;;;;;5054007;28;20037;-67
2021/12/25 08:40:09;;;;;;;0.95;0.95;;;8.00;99.90;;;;;;5063031;28;20057;-67
2021/12/25 08:42:36;;;;;;;0.30;0.30;;;8.10;99.90;;;;;;5073074;28;20090;-67
2021/12/25 08:47:36;;;;;;;0.28;0.28;;;8.20;99.90;;;;;;5068700;28;20087;-67
2021/12/25 08:50:09;;;;;;;0.85;0.85;;;8.00;99.90;;;;;;5067364;28;20040;-67
2021/12/25 08:52:36;;;;;;;0.00;0.00;;;8.00;99.90;;;;;;5073828;28;20028;-67
2021/12/25 08:55:03;;;;;;;3.20;1.85;;;7.90;99.90;;;;;;5072508;28;20032;-67
2021/12/25 08:57:29;;;;;;;1.00;0.90;;;8.00;99.90;;;;;;5067654;28;20028;-67
2021/12/25 08:59:56;;;;;;;0.17;0.17;;;8.00;99.90;;;;;;5073135;28;20542;-67
2021/12/25 09:02:23;;;;;;;0.63;0.63;;;8.00;99.90;;;;;;5070352;28;20025;-66
2021/12/25 09:04:51;;;;;;;6.22;0.43;;;8.00;99.90;;;;;;5072850;28;20040;-67
2021/12/25 09:07:18;;;;;;;0.00;0.00;;;8.00;99.90;;;;;;5070324;28;20033;-70
2021/12/25 09:09:44;;;;;;;0.43;0.43;;;7.90;99.90;;;;;;5071635;28;20063;-66
2021/12/25 09:12:13;;;;;;;0.25;0.25;;;7.90;99.90;;;;;;5071073;28;20052;-66
2021/12/25 09:14:39;;;;;;;0.20;0.20;;;8.00;99.90;;;;;;5072143;28;20107;-66
2021/12/25 09:17:08;;;;;;;0.10;0.10;;;8.10;99.90;;;;;;5073228;28;20437;-66
2021/12/25 09:19:34;;;;;;;0.10;0.10;;;8.10;99.90;;;;;;5072088;28;20054;-66
2021/12/25 09:22:00;;;;;;;0.25;0.25;;;8.10;99.90;;;;;;5073087;28;20123;-66
2021/12/25 09:24:26;;;;;;;0.03;0.03;;;8.20;99.90;;;;;;5072986;28;20094;-66
2021/12/25 09:26:52;;;;;;;0.82;0.82;;;8.20;99.90;;;;;;5073019;28;20056;-66
2021/12/25 09:29:18;;;;;;;0.28;0.28;;;8.20;99.90;;;;;;5073302;28;20060;-67
2021/12/25 09:31:44;;;;;;;1.15;0.93;;;8.00;99.90;;;;;;5073163;28;20381;-66
2021/12/25 09:34:10;;;;;;;0.38;0.38;;;8.00;99.90;;;;;;5071606;28;20044;-66
2021/12/25 09:36:36;;;;;;;0.93;0.13;;;8.00;99.90;;;;;;5071605;28;20033;-66
2021/12/25 09:39:05;;;;;;;0.13;0.13;;;8.00;99.90;;;;;;5071838;28;20631;-66
2021/12/25 09:41:33;;;;;;;0.50;0.50;;;7.90;99.90;;;;;;5072612;28;20129;-66
2021/12/25 09:44:01;;;;;;;1.60;1.33;;;8.00;99.90;;;;;;5071412;28;20037;-66
2021/12/25 09:46:26;;;;;;;0.75;0.75;;;7.90;99.90;;;;;;5071215;28;20135;-68
2021/12/25 09:48:54;;;;;;;0.20;0.20;;;7.90;99.90;;;;;;5071268;28;20163;-67
2021/12/25 09:51:20;;;;;;;3.90;0.47;;;8.00;99.90;;;;;;5071097;28;20025;-66
2021/12/25 09:54:07;;;;;;;2.63;1.10;;;7.90;99.90;;;;;;5070781;28;20029;-67
2021/12/25 09:56:39;;;;;;;1.55;1.45;;;8.00;99.90;;;;;;5072651;28;20109;-66
2021/12/25 09:59:13;;;;;;;1.00;1.00;;;8.00;99.90;;;;;;5071425;28;20031;-66
2021/12/25 10:01:52;;;;;;;0.00;0.00;;;7.90;99.90;;;;;;5072379;28;20286;-66
2021/12/25 10:04:47;;;;;;;0.10;0.10;;;7.90;99.90;;;;;;5069742;28;20047;-66
2021/12/25 10:07:29;;;;;;;1.33;1.00;;;7.90;99.90;;;;;;5079430;28;20047;-66
2021/12/25 10:10:07;;;;;;;0.00;0.00;;;7.70;99.90;;;;;;5070335;28;20496;-66
2021/12/25 10:12:43;;;;;;;1.08;1.02;;;7.40;99.90;;;;;;5069798;28;20036;-66
2021/12/25 10:15:18;;;;;;;0.38;0.32;;;7.30;99.90;;;;;;5058241;28;20040;-66
2021/12/25 10:17:57;;;;;;;0.30;0.30;;;7.10;99.90;;;;;;5070671;28;20381;-67
2021/12/25 10:20:31;;;;;;;0.95;0.95;;;6.90;99.90;;;;;;5062822;28;20037;-68
2021/12/25 10:23:00;;;;;;;0.20;0.20;;;6.80;99.90;;;;;;5052910;28;20437;-69
2021/12/25 10:25:35;;;;;;;1.02;1.02;;;6.60;99.90;;;;;;5070532;28;20045;-66
2021/12/25 10:28:08;;;;;;;0.57;0.57;;;6.50;99.90;;;;;;5070418;28;20526;-65
2021/12/25 10:31:16;;;;;;;0.03;0.03;;;6.50;99.90;;;;;;5054703;28;20056;-66
2021/12/25 10:33:53;;;;;;;0.00;0.00;;;6.40;99.90;;;;;;5057072;28;20116;-66
2021/12/25 10:36:35;;;;;;;0.00;0.00;;;6.20;99.90;;;;;;5062355;28;20029;-67
2021/12/25 10:39:15;;;;;;;0.10;0.10;;;6.10;99.90;;;;;;5034685;28;20025;-67
2021/12/25 10:41:50;;;;;;;0.10;0.10;;;6.00;99.90;;;;;;5050716;28;20086;-67
2021/12/25 10:44:38;;;;;;;0.20;0.20;;;5.90;99.90;;;;;;5070601;28;20044;-66
2021/12/25 10:47:24;;;;;;;2.42;1.65;;;5.90;99.90;;;;;;5046177;28;20037;-67
2021/12/25 10:50:02;;;;;;;0.03;0.03;;;5.80;99.90;;;;;;5062065;28;20039;-66
2021/12/25 10:52:40;;;;;;;0.40;0.40;;;5.80;99.90;;;;;;5054577;28;20087;-67
2021/12/25 10:55:20;;;;;;;0.43;0.43;;;5.70;99.90;;;;;;5053978;28;20040;-66
2021/12/25 10:57:55;;;;;;;0.10;0.10;;;5.70;99.90;;;;;;5070385;28;20031;-66
2021/12/25 11:00:24;;;;;;;1.05;1.05;;;5.80;99.90;;;;;;5071290;28;20036;-66
2021/12/25 11:02:52;;;;;;;0.80;0.80;;;5.80;99.90;;;;;;5071062;28;20036;-66
2021/12/25 11:05:45;;;;;;;0.10;0.10;;;5.80;99.90;;;;;;5068602;28;20068;-69
2021/12/25 11:08:17;;;;;;;0.20;0.20;;;5.80;99.90;;;;;;5070748;28;20090;-66
2021/12/25 11:11:18;;;;;;;0.00;0.00;;;5.80;99.90;;;;;;5068328;28;20037;-66
2021/12/25 11:13:55;;;;;;;0.75;0.75;;;5.90;99.90;;;;;;5044861;28;20509;-66
2021/12/25 11:16:31;;;;;;;2.03;0.95;;;5.80;99.90;;;;;;5054252;28;20171;-66
2021/12/25 11:19:05;;;;;;;0.13;0.13;;;5.80;99.90;;;;;;5055931;28;20031;-66
2021/12/25 11:21:46;;;;;;;0.38;0.38;;;5.80;99.90;;;;;;5064659;28;20090;-66
2021/12/25 11:24:27;;;;;;;0.20;0.20;;;5.80;99.90;;;;;;5055147;28;20037;-66
2021/12/25 11:27:02;;;;;;;0.10;0.10;;;5.90;99.90;;;;;;5055200;28;20068;-66
2021/12/25 11:29:31;;;;;;;0.65;0.65;;;5.90;99.90;;;;;;5053713;28;20040;-66
2021/12/25 11:31:59;;;;;;;0.10;0.10;;;5.80;99.90;;;;;;5055446;28;20044;-66
2021/12/25 11:34:26;;;;;;;0.10;0.10;;;5.80;99.90;;;;;;5054039;28;20040;-67
2021/12/25 11:36:56;;;;;;;0.10;0.10;;;5.80;99.90;;;;;;5055215;28;20033;-67
2021/12/25 11:39:25;;;;;;;0.50;0.50;;;5.80;99.90;;;;;;5054086;28;20124;-67
2021/12/25 11:41:56;;;;;;;0.15;0.15;;;5.90;99.90;;;;;;5054768;28;20052;-66
2021/12/25 11:44:45;;;;;;;0.00;0.00;;;5.90;99.90;;;;;;5053880;28;20044;-66
2021/12/25 11:47:42;;;;;;;0.10;0.10;;;5.80;99.90;;;;;;5071484;28;20045;-66
2021/12/25 11:50:24;;;;;;;0.10;0.10;;;5.70;99.90;;;;;;5056556;28;20033;-66
2021/12/25 11:58:59;;;;;;;1.65;0.75;;;5.60;99.90;;;;;;5066118;28;20029;-66
2021/12/25 12:01:49;;;;;;;0.28;0.28;;;5.50;99.90;;;;;;5053822;28;20024;-64
2021/12/25 12:04:24;;;;;;;0.75;0.75;;;5.60;99.90;;;;;;5055411;28;20029;-66
2021/12/25 12:07:14;;;;;;;0.10;0.10;;;5.60;99.90;;;;;;5054846;28;20135;-66
2021/12/25 12:09:51;;;;;;;0.22;0.22;;;5.60;99.90;;;;;;5037923;28;20033;-68
2021/12/25 12:12:27;;;;;;;1.45;0.50;;;5.50;99.90;;;;;;5055160;28;20041;-67
2021/12/25 12:15:15;;;;;;;0.25;0.25;;;5.40;99.90;;;;;;5037189;28;20037;-67
2021/12/25 12:17:43;;;;;;;0.32;0.32;;;5.40;99.90;;;;;;5053519;28;20029;-67
2021/12/25 12:20:15;;;;;;;0.20;0.20;;;5.40;99.90;;;;;;5054448;28;20040;-67
2021/12/25 12:22:56;;;;;;;0.10;0.10;;;5.30;99.90;;;;;;5052485;28;20124;-67
2021/12/25 12:25:46;;;;;;;0.10;0.10;;;5.30;99.90;;;;;;5069924;28;20116;-67
2021/12/25 12:28:13;;;;;;;0.35;0.35;;;5.40;99.90;;;;;;5080494;28;20031;-67
2021/12/25 12:30:42;;;;;;;0.00;0.00;;;5.30;99.90;;;;;;5094741;28;20060;-67
2021/12/25 12:33:12;;;;;;;0.38;0.38;;;5.30;99.90;;;;;;5094501;28;20031;-67
2021/12/25 12:35:41;;;;;;;0.00;0.00;;;5.30;99.90;;;;;;5094424;28;20040;-67
2021/12/25 12:41:32;;;;;;;0.00;0.00;;;5.40;99.90;;;;;;5054095;28;20052;-66
2021/12/25 12:44:02;;;;;;;0.05;0.05;;;5.30;99.90;;;;;;5052405;28;20525;-71
2021/12/25 12:46:53;;;;;;;0.10;0.10;;;5.50;99.90;;;;;;5052699;28;20048;-71
2021/12/25 12:49:53;;;;;;;0.10;0.10;;;5.50;99.90;;;;;;5043882;28;20041;-70
2021/12/25 12:52:39;;;;;;;0.10;0.10;;;5.60;99.90;;;;;;5038547;28;20082;-71
2021/12/25 12:55:32;;;;;;;0.00;0.00;;;5.50;99.90;;;;;;5052473;28;20078;-70
2021/12/25 12:58:28;;;;;;;0.10;0.10;;;5.50;99.90;;;;;;5053547;28;20041;-70
2021/12/25 13:01:11;;;;;;;0.00;0.00;;;5.40;99.90;;;;;;5067922;28;20024;-68
2021/12/25 13:03:36;;;;;;;0.10;0.10;;;5.30;99.90;;;;;;5071021;28;20041;-62
2021/12/25 13:06:11;;;;;;;0.00;0.00;;;5.30;99.90;;;;;;5073498;28;20111;-61
2021/12/25 13:08:39;;;;;;;0.10;0.10;;;5.40;99.90;;;;;;5073450;28;20039;-68
2021/12/25 13:11:15;;;;;;;0.10;0.10;;;5.50;99.90;;;;;;5089369;28;20044;-63
2021/12/25 13:14:04;;;;;;;0.05;0.05;;;5.50;99.90;;;;;;5073153;28;20420;-60
2021/12/25 13:16:43;;;;;;;0.52;0.52;;;5.60;99.90;;;;;;5075123;28;20378;-62
2021/12/25 13:19:09;;;;;;;0.00;0.00;;;5.60;99.90;;;;;;5073290;28;20568;-61
2021/12/25 13:21:36;;;;;;;0.10;0.10;;;5.60;99.90;;;;;;5073096;28;20075;-61
2021/12/25 13:24:16;;;;;;;0.10;0.10;;;5.60;99.90;;;;;;5073097;28;20051;-63
2021/12/25 13:26:48;;;;;;;0.00;0.00;;;5.70;99.90;;;;;;5072447;28;20385;-63
2021/12/25 13:29:21;;;;;;;0.10;0.10;;;5.70;99.90;;;;;;5072546;28;20045;-67
2021/12/25 13:31:51;;;;;;;0.00;0.00;;;5.60;99.90;;;;;;5071918;28;20036;-67
2021/12/25 13:34:21;;;;;;;0.08;0.08;;;5.60;99.90;;;;;;5071710;28;20087;-65
2021/12/25 13:36:55;;;;;;;0.10;0.10;;;5.50;99.90;;;;;;5071904;28;20039;-65
2021/12/25 13:39:32;;;;;;;1.13;0.32;;;5.50;99.90;;;;;;5072688;28;20114;-65
2021/12/25 13:42:15;;;;;;;0.10;0.10;;;5.40;99.90;;;;;;5071561;28;20033;-68
2021/12/25 13:44:44;;;;;;;0.70;0.43;;;5.40;99.90;;;;;;5072833;28;20036;-73
2021/12/25 13:47:13;;;;;;;1.15;0.70;;;5.40;99.90;;;;;;5071238;28;20041;-66
2021/12/25 13:49:54;;;;;;;0.00;0.00;;;5.40;99.90;;;;;;5054803;28;20043;-66
2021/12/25 13:52:20;;;;;;;0.10;0.10;;;5.40;99.90;;;;;;5071792;28;20056;-67
2021/12/25 13:54:54;;;;;;;0.82;0.77;;;5.20;99.90;;;;;;5072617;28;20102;-67
2021/12/25 13:57:20;;;;;;;0.00;0.00;;;5.20;99.90;;;;;;5071631;28;20033;-63
2021/12/25 13:59:53;;;;;;;0.00;0.00;;;5.20;99.90;;;;;;5076784;28;20036;-63
2021/12/25 14:02:20;;;;;;;0.20;0.20;;;5.40;99.90;;;;;;5071340;28;20033;-64
2021/12/25 14:04:51;;;;;;;0.10;0.10;;;5.50;99.90;;;;;;5072465;28;20032;-63
2021/12/25 14:07:20;;;;;;;0.77;0.67;;;5.50;99.90;;;;;;5070259;28;20020;-63
2021/12/25 14:10:11;;;;;;;0.10;0.10;;;5.50;99.90;;;;;;5071746;28;20119;-63
2021/12/25 14:12:43;;;;;;;0.25;0.25;;;5.50;99.90;;;;;;5070263;28;20039;-61
2021/12/25 14:15:12;;;;;;;0.10;0.10;;;5.70;99.90;;;;;;5071846;28;20048;-63
2021/12/25 14:17:42;;;;;;;0.10;0.10;;;5.70;99.90;;;;;;5069622;28;20112;-62
2021/12/25 14:20:16;;;;;;;0.30;0.30;;;5.50;99.90;;;;;;5063748;28;20056;-62
2021/12/25 14:22:45;;;;;;;0.10;0.10;;;5.40;99.90;;;;;;5057600;28;20036;-68
2021/12/25 14:25:26;;;;;;;0.15;0.15;;;5.40;99.90;;;;;;5064186;28;20041;-68
2021/12/25 14:28:11;;;;;;;0.10;0.10;;;5.30;99.90;;;;;;5059659;28;20028;-67
2021/12/25 14:30:43;;;;;;;0.35;0.35;;;5.10;99.90;;;;;;5066700;28;20032;-68
2021/12/25 14:33:18;;;;;;;0.00;0.00;;;5.00;99.90;;;;;;5070651;28;20073;-68
2021/12/25 14:35:46;;;;;;;0.10;0.10;;;4.90;99.90;;;;;;5070376;28;20451;-68
2021/12/25 14:38:12;;;;;;;0.52;0.52;;;4.90;99.90;;;;;;5070587;28;20033;-68
2021/12/25 14:40:45;;;;;;;0.03;0.03;;;4.90;99.90;;;;;;5072269;28;20037;-68
2021/12/25 14:43:15;;;;;;;0.10;0.10;;;4.90;99.90;;;;;;5071941;28;20397;-68
2021/12/25 14:45:50;;;;;;;0.10;0.10;;;4.80;99.90;;;;;;5071602;28;20021;-70
2021/12/25 14:48:36;;;;;;;0.38;0.38;;;4.80;99.90;;;;;;5071655;28;20489;-66